St-Hubert, Belgium
Current Conditions -  °F | °C
As of 6:33 AM on Tuesday 27 Jan 2015 (Local Time) from EBFS Reporting Station
Snow Showers Snow Showers  
Wind Chill: 29°   Ceiling: 500
Heat Index: 36°   Visibility: 4mi
Dew Point: 34°   Wind: 8mph
Humidity: 93%   Direction: 300°WNW
Pressure: 30.24"   Gusts: NA
Location:  50.03°N, 5.4°E
Report Text: EBFS 270533Z 30007KT 7000 -SHRASN SCT003 BKN005 BKN007 02/01 Q1024 YLO YLO TEMPO GRN
Loading
Personal Weather Stations






























Interactive Weather Map New forecast layout! Learn more

10-Day Weather Forecast

Advertisements
Track Severe Weather on mobile